sensor_id;sensor_type;location;lat;lon;timestamp;pressure;altitude;pressure_sealevel;temperature;humidity
6389;BME280;3227;42.654;23.360;2022-10-03T00:01:42;94455.81;;;13.59;77.72
6389;BME280;3227;42.654;23.360;2022-10-03T00:04:22;94454.34;;;13.41;78.86
6389;BME280;3227;42.654;23.360;2022-10-03T00:07:02;94452.56;;;13.46;78.91
6389;BME280;3227;42.654;23.360;2022-10-03T00:09:46;94446.47;;;13.52;79.32
6389;BME280;3227;42.654;23.360;2022-10-03T00:12:40;94446.53;;;13.50;79.84
6389;BME280;3227;42.654;23.360;2022-10-03T00:15:17;94439.69;;;13.45;80.78
6389;BME280;3227;42.654;23.360;2022-10-03T00:17:55;94432.94;;;13.36;81.18
6389;BME280;3227;42.654;23.360;2022-10-03T00:20:37;94425.28;;;13.33;80.91
6389;BME280;3227;42.654;23.360;2022-10-03T00:23:11;94422.81;;;13.25;80.79
6389;BME280;3227;42.654;23.360;2022-10-03T00:25:47;94417.72;;;13.18;81.16
6389;BME280;3227;42.654;23.360;2022-10-03T00:28:40;94420.34;;;13.10;81.58
6389;BME280;3227;42.654;23.360;2022-10-03T00:31:12;94409.28;;;13.05;80.98
6389;BME280;3227;42.654;23.360;2022-10-03T00:33:50;94420.38;;;13.13;80.97
6389;BME280;3227;42.654;23.360;2022-10-03T00:36:27;94425.44;;;13.18;80.78
6389;BME280;3227;42.654;23.360;2022-10-03T00:39:17;94416.06;;;13.14;81.20
6389;BME280;3227;42.654;23.360;2022-10-03T00:42:24;94424.56;;;13.19;81.54
6389;BME280;3227;42.654;23.360;2022-10-03T00:48:14;94408.44;;;13.05;82.63
6389;BME280;3227;42.654;23.360;2022-10-03T00:51:02;94419.56;;;13.07;82.53
6389;BME280;3227;42.654;23.360;2022-10-03T00:53:42;94420.50;;;13.00;83.24
6389;BME280;3227;42.654;23.360;2022-10-03T00:56:34;94425.56;;;13.06;83.90
6389;BME280;3227;42.654;23.360;2022-10-03T00:59:15;94429.06;;;13.00;84.02
6389;BME280;3227;42.654;23.360;2022-10-03T01:01:45;94406.06;;;12.86;84.01
6389;BME280;3227;42.654;23.360;2022-10-03T01:04:40;94426.53;;;12.94;84.99
6389;BME280;3227;42.654;23.360;2022-10-03T01:07:23;94406.03;;;12.88;85.41
6389;BME280;3227;42.654;23.360;2022-10-03T01:09:59;94413.72;;;12.92;84.90
6389;BME280;3227;42.654;23.360;2022-10-03T01:12:45;94411.16;;;12.92;85.46
6389;BME280;3227;42.654;23.360;2022-10-03T01:15:21;94406.00;;;12.92;85.65
6389;BME280;3227;42.654;23.360;2022-10-03T01:18:04;94406.91;;;12.85;85.12
6389;BME280;3227;42.654;23.360;2022-10-03T01:20:41;94407.78;;;12.86;84.57
6389;BME280;3227;42.654;23.360;2022-10-03T01:23:42;94401.84;;;12.82;85.06
6389;BME280;3227;42.654;23.360;2022-10-03T01:29:25;94405.25;;;12.84;85.18
6389;BME280;3227;42.654;23.360;2022-10-03T01:32:17;94391.53;;;12.82;85.39
6389;BME280;3227;42.654;23.360;2022-10-03T01:34:50;94388.06;;;12.86;85.38
6389;BME280;3227;42.654;23.360;2022-10-03T01:37:25;94388.13;;;12.80;85.02
6389;BME280;3227;42.654;23.360;2022-10-03T01:40:02;94398.50;;;12.74;85.16
6389;BME280;3227;42.654;23.360;2022-10-03T01:42:38;94344.06;;;12.34;86.25
6389;BME280;3227;42.654;23.360;2022-10-03T01:45:20;94392.66;;;12.58;87.12
6389;BME280;3227;42.654;23.360;2022-10-03T01:47:56;94395.19;;;12.60;87.42
6389;BME280;3227;42.654;23.360;2022-10-03T01:50:30;94392.66;;;12.58;87.73
6389;BME280;3227;42.654;23.360;2022-10-03T01:53:06;94391.72;;;12.64;87.38
6389;BME280;3227;42.654;23.360;2022-10-03T01:55:46;94384.91;;;12.60;87.61
6389;BME280;3227;42.654;23.360;2022-10-03T01:58:22;94386.66;;;12.58;87.84
6389;BME280;3227;42.654;23.360;2022-10-03T02:00:58;94330.41;;;12.31;87.72
6389;BME280;3227;42.654;23.360;2022-10-03T02:03:31;94386.59;;;12.64;86.96
6389;BME280;3227;42.654;23.360;2022-10-03T02:06:07;94382.28;;;12.66;86.69
6389;BME280;3227;42.654;23.360;2022-10-03T02:08:48;94378.03;;;12.61;87.41
6389;BME280;3227;42.654;23.360;2022-10-03T02:11:28;94377.25;;;12.57;88.25
6389;BME280;3227;42.654;23.360;2022-10-03T02:14:06;94373.03;;;12.48;88.55
6389;BME280;3227;42.654;23.360;2022-10-03T02:16:43;94368.78;;;12.46;87.81
6389;BME280;3227;42.654;23.360;2022-10-03T02:19:17;94376.53;;;12.43;88.21
6389;BME280;3227;42.654;23.360;2022-10-03T02:21:48;94368.00;;;12.38;88.60
6389;BME280;3227;42.654;23.360;2022-10-03T02:24:25;94373.91;;;12.46;88.62
6389;BME280;3227;42.654;23.360;2022-10-03T02:27:25;94320.25;;;12.18;88.13
6389;BME280;3227;42.654;23.360;2022-10-03T02:30:11;94315.13;;;12.15;87.81
6389;BME280;3227;42.654;23.360;2022-10-03T02:36:05;94377.34;;;12.48;88.34
6389;BME280;3227;42.654;23.360;2022-10-03T02:38:48;94375.53;;;12.54;88.60
6389;BME280;3227;42.654;23.360;2022-10-03T02:41:39;94372.97;;;12.56;89.30
6389;BME280;3227;42.654;23.360;2022-10-03T02:50:58;94369.06;;;12.17;90.70
6389;BME280;3227;42.654;23.360;2022-10-03T02:54:01;94375.13;;;12.08;91.47
6389;BME280;3227;42.654;23.360;2022-10-03T02:57:07;94379.41;;;12.06;92.41
6389;BME280;3227;42.654;23.360;2022-10-03T03:00:00;94379.38;;;12.11;92.29
6389;BME280;3227;42.654;23.360;2022-10-03T03:03:00;94378.47;;;12.18;92.76
6389;BME280;3227;42.654;23.360;2022-10-03T03:06:11;94370.63;;;12.32;93.31
6389;BME280;3227;42.654;23.360;2022-10-03T03:08:56;94374.00;;;12.38;92.12
6389;BME280;3227;42.654;23.360;2022-10-03T03:12:03;94371.41;;;12.41;92.52
6389;BME280;3227;42.654;23.360;2022-10-03T03:15:11;94374.69;;;12.52;91.65
6389;BME280;3227;42.654;23.360;2022-10-03T03:17:50;94371.19;;;12.63;91.74
6389;BME280;3227;42.654;23.360;2022-10-03T03:20:40;94375.38;;;12.70;90.66
6389;BME280;3227;42.654;23.360;2022-10-03T03:23:31;94314.81;;;12.44;90.21
6389;BME280;3227;42.654;23.360;2022-10-03T03:26:17;94338.63;;;12.62;90.31
6389;BME280;3227;42.654;23.360;2022-10-03T03:28:58;94338.53;;;12.69;90.23
6389;BME280;3227;42.654;23.360;2022-10-03T03:31:34;94352.06;;;12.86;89.92
6389;BME280;3227;42.654;23.360;2022-10-03T03:34:08;94355.47;;;12.88;89.02
6389;BME280;3227;42.654;23.360;2022-10-03T03:36:46;94370.00;;;12.92;89.30
6389;BME280;3227;42.654;23.360;2022-10-03T03:39:35;94362.34;;;12.86;89.70
6389;BME280;3227;42.654;23.360;2022-10-03T03:42:19;94359.88;;;12.77;89.92
6389;BME280;3227;42.654;23.360;2022-10-03T03:45:07;94359.09;;;12.69;91.77
6389;BME280;3227;42.654;23.360;2022-10-03T03:47:54;94352.28;;;12.68;91.53
6389;BME280;3227;42.654;23.360;2022-10-03T03:50:34;94350.53;;;12.70;90.59
6389;BME280;3227;42.654;23.360;2022-10-03T03:56:22;94336.88;;;12.67;90.78
6389;BME280;3227;42.654;23.360;2022-10-03T03:59:03;94336.81;;;12.71;91.40
6389;BME280;3227;42.654;23.360;2022-10-03T04:01:50;94338.50;;;12.75;91.77
6389;BME280;3227;42.654;23.360;2022-10-03T04:04:33;94341.03;;;12.77;91.68
6389;BME280;3227;42.654;23.360;2022-10-03T04:07:17;94340.19;;;12.76;91.17
6389;BME280;3227;42.654;23.360;2022-10-03T04:10:11;94330.72;;;12.80;91.43
6389;BME280;3227;42.654;23.360;2022-10-03T04:15:50;94338.34;;;12.87;91.96
6389;BME280;3227;42.654;23.360;2022-10-03T04:18:30;94337.47;;;12.87;91.44
6389;BME280;3227;42.654;23.360;2022-10-03T04:21:23;94331.50;;;12.86;91.35
6389;BME280;3227;42.654;23.360;2022-10-03T04:24:14;94332.41;;;12.84;90.97
6389;BME280;3227;42.654;23.360;2022-10-03T04:26:59;94334.91;;;12.85;92.14
6389;BME280;3227;42.654;23.360;2022-10-03T04:29:42;94329.78;;;12.85;91.91
6389;BME280;3227;42.654;23.360;2022-10-03T04:32:27;94335.66;;;12.95;91.12
6389;BME280;3227;42.654;23.360;2022-10-03T04:35:10;94341.63;;;13.00;90.30
6389;BME280;3227;42.654;23.360;2022-10-03T04:37:43;94323.75;;;12.89;90.82
6389;BME280;3227;42.654;23.360;2022-10-03T04:40:24;94340.50;;;13.24;89.99
6389;BME280;3227;42.654;23.360;2022-10-03T04:43:03;94324.88;;;13.36;89.33
6389;BME280;3227;42.654;23.360;2022-10-03T04:45:45;94334.09;;;13.51;89.06
6389;BME280;3227;42.654;23.360;2022-10-03T04:48:23;94328.19;;;13.43;89.09
6389;BME280;3227;42.654;23.360;2022-10-03T04:51:02;94335.97;;;13.41;89.03
6389;BME280;3227;42.654;23.360;2022-10-03T04:53:46;94333.50;;;13.33;89.21
6389;BME280;3227;42.654;23.360;2022-10-03T04:56:39;94330.94;;;13.32;89.57
6389;BME280;3227;42.654;23.360;2022-10-03T04:59:25;94334.38;;;13.31;90.47
6389;BME280;3227;42.654;23.360;2022-10-03T05:01:58;94330.03;;;13.34;90.87
6389;BME280;3227;42.654;23.360;2022-10-03T05:04:35;94330.84;;;13.38;90.16
6389;BME280;3227;42.654;23.360;2022-10-03T05:07:27;94319.69;;;13.39;91.03
6389;BME280;3227;42.654;23.360;2022-10-03T05:10:00;94330.84;;;13.38;90.85
6389;BME280;3227;42.654;23.360;2022-10-03T05:12:34;94328.31;;;13.35;90.22
6389;BME280;3227;42.654;23.360;2022-10-03T05:15:17;94333.44;;;13.37;91.19
6389;BME280;3227;42.654;23.360;2022-10-03T05:17:54;94347.97;;;13.41;91.48
6389;BME280;3227;42.654;23.360;2022-10-03T05:20:37;94279.72;;;13.15;91.22
6389;BME280;3227;42.654;23.360;2022-10-03T05:23:25;94328.91;;;13.52;90.01
6389;BME280;3227;42.654;23.360;2022-10-03T05:26:00;94340.75;;;13.65;89.26
6389;BME280;3227;42.654;23.360;2022-10-03T05:28:36;94334.63;;;13.73;89.25
6389;BME280;3227;42.654;23.360;2022-10-03T05:31:25;94340.41;;;13.87;88.57
6389;BME280;3227;42.654;23.360;2022-10-03T05:34:02;94331.66;;;13.97;87.98
6389;BME280;3227;42.654;23.360;2022-10-03T05:36:49;94328.94;;;14.07;86.85
6389;BME280;3227;42.654;23.360;2022-10-03T05:39:27;94327.97;;;14.13;86.48
6389;BME280;3227;42.654;23.360;2022-10-03T05:42:10;94304.78;;;14.13;86.30
6389;BME280;3227;42.654;23.360;2022-10-03T05:44:42;94262.19;;;13.92;86.19
6389;BME280;3227;42.654;23.360;2022-10-03T05:47:14;94298.44;;;14.32;85.76
6389;BME280;3227;42.654;23.360;2022-10-03T05:56:20;94310.91;;;14.57;85.25
6389;BME280;3227;42.654;23.360;2022-10-03T05:59:21;94314.88;;;14.73;83.36
6389;BME280;3227;42.654;23.360;2022-10-03T06:02:11;94315.28;;;14.95;82.17
6389;BME280;3227;42.654;23.360;2022-10-03T06:07:46;94325.25;;;14.70;81.06
6389;BME280;3227;42.654;23.360;2022-10-03T06:10:42;94342.75;;;14.53;82.65
6389;BME280;3227;42.654;23.360;2022-10-03T06:13:19;94327.31;;;14.51;82.84
6389;BME280;3227;42.654;23.360;2022-10-03T06:16:20;94339.31;;;14.52;82.31
6389;BME280;3227;42.654;23.360;2022-10-03T06:19:12;94344.34;;;14.60;82.00
6389;BME280;3227;42.654;23.360;2022-10-03T06:43:57;94341.22;;;15.32;82.23
6389;BME280;3227;42.654;23.360;2022-10-03T06:46:47;94347.75;;;15.48;80.44
6389;BME280;3227;42.654;23.360;2022-10-03T06:49:34;94348.88;;;15.35;80.30
6389;BME280;3227;42.654;23.360;2022-10-03T06:52:24;94358.63;;;15.20;80.21
6389;BME280;3227;42.654;23.360;2022-10-03T06:55:17;94346.84;;;15.07;81.88
6389;BME280;3227;42.654;23.360;2022-10-03T06:58:27;94352.09;;;15.04;83.47
6389;BME280;3227;42.654;23.360;2022-10-03T07:01:18;94352.41;;;14.41;85.52
6389;BME280;3227;42.654;23.360;2022-10-03T07:04:07;94361.91;;;14.36;87.30
6389;BME280;3227;42.654;23.360;2022-10-03T07:07:13;94372.59;;;14.15;88.97
6389;BME280;3227;42.654;23.360;2022-10-03T07:10:12;94379.88;;;13.90;90.41
6389;BME280;3227;42.654;23.360;2022-10-03T07:16:30;94399.44;;;13.42;92.87
6389;BME280;3227;42.654;23.360;2022-10-03T07:19:36;94384.13;;;13.30;93.75
6389;BME280;3227;42.654;23.360;2022-10-03T07:22:28;94389.34;;;13.25;93.79
6389;BME280;3227;42.654;23.360;2022-10-03T07:25:42;94420.06;;;13.39;94.21
6389;BME280;3227;42.654;23.360;2022-10-03T07:28:38;94429.41;;;13.46;95.31
6389;BME280;3227;42.654;23.360;2022-10-03T07:31:18;94447.50;;;13.40;94.66
6389;BME280;3227;42.654;23.360;2022-10-03T07:34:12;94442.38;;;13.39;96.56
6389;BME280;3227;42.654;23.360;2022-10-03T07:36:58;94443.03;;;13.51;96.74
6389;BME280;3227;42.654;23.360;2022-10-03T07:40:31;94431.75;;;13.61;95.71
6389;BME280;3227;42.654;23.360;2022-10-03T07:43:43;94439.50;;;13.60;96.28
6389;BME280;3227;42.654;23.360;2022-10-03T07:46:48;94454.91;;;13.66;95.53
6389;BME280;3227;42.654;23.360;2022-10-03T07:49:42;94455.59;;;13.76;95.91
6389;BME280;3227;42.654;23.360;2022-10-03T07:52:50;94454.50;;;13.93;95.54
6389;BME280;3227;42.654;23.360;2022-10-03T07:55:27;94437.28;;;13.98;95.17
6389;BME280;3227;42.654;23.360;2022-10-03T07:58:23;94451.75;;;14.07;96.47
6389;BME280;3227;42.654;23.360;2022-10-03T08:01:05;94446.59;;;14.07;95.74
6389;BME280;3227;42.654;23.360;2022-10-03T08:03:59;94439.75;;;14.04;97.13
6389;BME280;3227;42.654;23.360;2022-10-03T08:06:37;94451.59;;;14.16;97.67
6389;BME280;3227;42.654;23.360;2022-10-03T08:13:01;94446.19;;;14.33;96.29
6389;BME280;3227;42.654;23.360;2022-10-03T08:15:48;94449.56;;;14.36;95.10
6389;BME280;3227;42.654;23.360;2022-10-03T08:21:20;94455.66;;;14.31;97.53
6389;BME280;3227;42.654;23.360;2022-10-03T08:24:22;94456.56;;;14.28;98.35
6389;BME280;3227;42.654;23.360;2022-10-03T08:30:25;94452.91;;;14.44;97.34
6389;BME280;3227;42.654;23.360;2022-10-03T08:33:25;94458.78;;;14.53;96.06
6389;BME280;3227;42.654;23.360;2022-10-03T08:42:46;94455.28;;;14.57;96.10
6389;BME280;3227;42.654;23.360;2022-10-03T08:45:40;94463.78;;;14.62;97.01
6389;BME280;3227;42.654;23.360;2022-10-03T08:54:48;94467.59;;;14.38;97.88
6389;BME280;3227;42.654;23.360;2022-10-03T08:57:43;94460.63;;;14.46;98.38
6389;BME280;3227;42.654;23.360;2022-10-03T09:00:18;94414.34;;;14.35;99.46
6389;BME280;3227;42.654;23.360;2022-10-03T09:03:26;94461.66;;;14.85;98.54
6389;BME280;3227;42.654;23.360;2022-10-03T09:06:27;94460.38;;;15.09;97.59
6389;BME280;3227;42.654;23.360;2022-10-03T09:12:26;94468.66;;;15.26;96.18
6389;BME280;3227;42.654;23.360;2022-10-03T09:15:25;94465.88;;;15.35;94.99
6389;BME280;3227;42.654;23.360;2022-10-03T09:21:08;94460.28;;;15.59;94.45
6389;BME280;3227;42.654;23.360;2022-10-03T09:23:59;94461.59;;;15.79;92.79
6389;BME280;3227;42.654;23.360;2022-10-03T09:27:00;94455.25;;;15.93;92.86
6389;BME280;3227;42.654;23.360;2022-10-03T09:30:06;94456.25;;;15.88;90.57
6389;BME280;3227;42.654;23.360;2022-10-03T09:33:03;94459.09;;;15.74;90.86
6389;BME280;3227;42.654;23.360;2022-10-03T09:35:46;94444.59;;;15.67;91.55
6389;BME280;3227;42.654;23.360;2022-10-03T09:41:49;94454.81;;;15.73;91.82
6389;BME280;3227;42.654;23.360;2022-10-03T09:44:58;94449.78;;;15.67;92.44
6389;BME280;3227;42.654;23.360;2022-10-03T09:48:03;94450.59;;;15.69;92.10
6389;BME280;3227;42.654;23.360;2022-10-03T09:50:56;94457.94;;;15.89;92.05
6389;BME280;3227;42.654;23.360;2022-10-03T09:59:51;94445.72;;;15.95;88.60
6389;BME280;3227;42.654;23.360;2022-10-03T10:03:02;94452.72;;;15.90;86.73
6389;BME280;3227;42.654;23.360;2022-10-03T10:06:07;94459.97;;;15.73;84.72
6389;BME280;3227;42.654;23.360;2022-10-03T10:12:44;94439.97;;;15.83;83.30
6389;BME280;3227;42.654;23.360;2022-10-03T10:18:35;94431.47;;;16.16;80.58
6389;BME280;3227;42.654;23.360;2022-10-03T10:21:38;94438.81;;;16.33;79.88
6389;BME280;3227;42.654;23.360;2022-10-03T10:24:49;94429.28;;;16.36;77.52
6389;BME280;3227;42.654;23.360;2022-10-03T10:30:22;94441.59;;;16.62;76.13
6389;BME280;3227;42.654;23.360;2022-10-03T10:33:30;94449.13;;;16.71;74.42
6389;BME280;3227;42.654;23.360;2022-10-03T10:39:41;94445.13;;;16.94;72.83
6389;BME280;3227;42.654;23.360;2022-10-03T10:42:47;94456.13;;;17.02;73.14
6389;BME280;3227;42.654;23.360;2022-10-03T10:45:38;94460.47;;;17.00;70.55
6389;BME280;3227;42.654;23.360;2022-10-03T10:54:45;94453.19;;;16.82;69.93
6389;BME280;3227;42.654;23.360;2022-10-03T10:57:40;94438.50;;;16.82;69.40
6389;BME280;3227;42.654;23.360;2022-10-03T11:00:23;94461.28;;;16.68;70.19
6389;BME280;3227;42.654;23.360;2022-10-03T11:06:30;94455.09;;;16.73;69.53
6389;BME280;3227;42.654;23.360;2022-10-03T11:09:26;94452.09;;;16.90;69.12
6389;BME280;3227;42.654;23.360;2022-10-03T11:15:54;94459.41;;;17.07;68.85
6389;BME280;3227;42.654;23.360;2022-10-03T11:28:33;94451.25;;;16.90;70.57
6389;BME280;3227;42.654;23.360;2022-10-03T11:34:40;94462.84;;;16.75;71.01
6389;BME280;3227;42.654;23.360;2022-10-03T11:37:23;94469.94;;;16.67;70.59
6389;BME280;3227;42.654;23.360;2022-10-03T11:40:01;94452.03;;;16.56;70.69
6389;BME280;3227;42.654;23.360;2022-10-03T11:42:45;94460.50;;;16.64;69.62
6389;BME280;3227;42.654;23.360;2022-10-03T11:45:25;94461.69;;;16.50;68.51
6389;BME280;3227;42.654;23.360;2022-10-03T11:48:21;94464.38;;;16.47;70.18
6389;BME280;3227;42.654;23.360;2022-10-03T11:50:52;94461.06;;;16.40;69.42
6389;BME280;3227;42.654;23.360;2022-10-03T11:53:39;94458.47;;;16.40;69.46
6389;BME280;3227;42.654;23.360;2022-10-03T11:56:18;94454.16;;;16.41;69.93
6389;BME280;3227;42.654;23.360;2022-10-03T11:58:56;94456.75;;;16.41;70.47
6389;BME280;3227;42.654;23.360;2022-10-03T12:01:41;94448.78;;;16.48;70.30
6389;BME280;3227;42.654;23.360;2022-10-03T12:04:19;94453.22;;;16.45;70.82
6389;BME280;3227;42.654;23.360;2022-10-03T12:06:57;94435.16;;;16.42;70.09
6389;BME280;3227;42.654;23.360;2022-10-03T12:09:54;94421.81;;;16.23;69.66
6389;BME280;3227;42.654;23.360;2022-10-03T12:12:29;94438.13;;;16.26;69.33
6389;BME280;3227;42.654;23.360;2022-10-03T12:15:03;94428.63;;;16.27;69.78
6389;BME280;3227;42.654;23.360;2022-10-03T12:17:39;94437.28;;;16.26;69.11
6389;BME280;3227;42.654;23.360;2022-10-03T12:20:16;94437.06;;;16.35;69.63
6389;BME280;3227;42.654;23.360;2022-10-03T12:22:49;94439.28;;;16.50;69.15
6389;BME280;3227;42.654;23.360;2022-10-03T12:25:22;94435.56;;;16.62;68.95
6389;BME280;3227;42.654;23.360;2022-10-03T12:27:57;94436.09;;;16.74;68.28
6389;BME280;3227;42.654;23.360;2022-10-03T12:30:32;94435.72;;;16.90;67.46
6389;BME280;3227;42.654;23.360;2022-10-03T12:33:18;94431.19;;;16.98;67.00
6389;BME280;3227;42.654;23.360;2022-10-03T12:35:53;94428.34;;;17.07;65.67
6389;BME280;3227;42.654;23.360;2022-10-03T12:38:33;94435.78;;;17.21;63.35
6389;BME280;3227;42.654;23.360;2022-10-03T12:41:17;94342.16;;;16.72;59.49
6389;BME280;3227;42.654;23.360;2022-10-03T12:43:57;94420.56;;;17.08;59.04
6389;BME280;3227;42.654;23.360;2022-10-03T12:46:38;94428.34;;;17.07;58.23
6389;BME280;3227;42.654;23.360;2022-10-03T12:49:14;94420.41;;;17.13;58.12
6389;BME280;3227;42.654;23.360;2022-10-03T12:51:52;94404.09;;;17.11;58.12
6389;BME280;3227;42.654;23.360;2022-10-03T12:54:36;94428.56;;;17.30;58.40
6389;BME280;3227;42.654;23.360;2022-10-03T12:57:35;94427.38;;;17.43;58.74
6389;BME280;3227;42.654;23.360;2022-10-03T13:00:11;94427.88;;;17.55;58.46
6389;BME280;3227;42.654;23.360;2022-10-03T13:02:43;94427.72;;;17.62;57.07
6389;BME280;3227;42.654;23.360;2022-10-03T13:05:37;94427.63;;;17.65;56.19
6389;BME280;3227;42.654;23.360;2022-10-03T13:08:20;94442.06;;;17.74;55.79
6389;BME280;3227;42.654;23.360;2022-10-03T13:10:55;94427.44;;;17.71;55.05
6389;BME280;3227;42.654;23.360;2022-10-03T13:13:30;94439.00;;;17.60;53.68
6389;BME280;3227;42.654;23.360;2022-10-03T13:16:10;94421.13;;;17.50;54.12
6389;BME280;3227;42.654;23.360;2022-10-03T13:18:45;94426.13;;;17.57;54.79
6389;BME280;3227;42.654;23.360;2022-10-03T13:21:18;94447.09;;;17.47;53.87
6389;BME280;3227;42.654;23.360;2022-10-03T13:23:50;94441.13;;;17.45;54.57
6389;BME280;3227;42.654;23.360;2022-10-03T13:26:25;94432.38;;;17.49;54.89
6389;BME280;3227;42.654;23.360;2022-10-03T13:29:14;94431.72;;;17.41;54.23
6389;BME280;3227;42.654;23.360;2022-10-03T13:31:55;94433.63;;;17.36;56.13
6389;BME280;3227;42.654;23.360;2022-10-03T13:34:28;94429.50;;;17.29;56.36
6389;BME280;3227;42.654;23.360;2022-10-03T13:36:59;94439.84;;;17.29;57.24
6389;BME280;3227;42.654;23.360;2022-10-03T13:39:43;94433.53;;;17.38;55.43
6389;BME280;3227;42.654;23.360;2022-10-03T13:42:15;94441.28;;;17.39;55.12
6389;BME280;3227;42.654;23.360;2022-10-03T13:44:48;94439.78;;;17.31;54.44
6389;BME280;3227;42.654;23.360;2022-10-03T13:47:37;94402.50;;;17.05;53.90
6389;BME280;3227;42.654;23.360;2022-10-03T13:50:12;94395.06;;;16.95;51.31
6389;BME280;3227;42.654;23.360;2022-10-03T13:52:44;94434.81;;;17.23;51.55
6389;BME280;3227;42.654;23.360;2022-10-03T13:55:25;94436.63;;;17.21;52.10
6389;BME280;3227;42.654;23.360;2022-10-03T13:58:08;94436.81;;;17.13;52.66
6389;BME280;3227;42.654;23.360;2022-10-03T14:01:00;94421.16;;;17.18;53.51
6389;BME280;3227;42.654;23.360;2022-10-03T14:03:41;94435.72;;;17.22;53.47
6389;BME280;3227;42.654;23.360;2022-10-03T14:06:17;94420.19;;;16.90;52.77
6389;BME280;3227;42.654;23.360;2022-10-03T14:09:01;94435.56;;;16.96;53.56
6389;BME280;3227;42.654;23.360;2022-10-03T14:11:41;94438.03;;;17.00;53.27
6389;BME280;3227;42.654;23.360;2022-10-03T14:17:10;94448.88;;;16.81;52.26
6389;BME280;3227;42.654;23.360;2022-10-03T14:19:49;94417.53;;;16.57;52.75
6389;BME280;3227;42.654;23.360;2022-10-03T14:22:27;94436.31;;;16.67;52.66
6389;BME280;3227;42.654;23.360;2022-10-03T14:25:08;94434.59;;;16.66;52.99
6389;BME280;3227;42.654;23.360;2022-10-03T14:27:58;94434.75;;;16.58;52.96
6389;BME280;3227;42.654;23.360;2022-10-03T14:30:35;94434.25;;;16.44;52.12
6389;BME280;3227;42.654;23.360;2022-10-03T14:33:18;94430.81;;;16.44;52.06
6389;BME280;3227;42.654;23.360;2022-10-03T14:35:58;94437.06;;;16.35;51.98
6389;BME280;3227;42.654;23.360;2022-10-03T14:38:39;94445.81;;;16.29;52.51
6389;BME280;3227;42.654;23.360;2022-10-03T14:41:45;94451.06;;;16.25;52.69
6389;BME280;3227;42.654;23.360;2022-10-03T14:44:17;94439.25;;;16.15;52.76
6389;BME280;3227;42.654;23.360;2022-10-03T14:46:49;94447.91;;;16.14;53.64
6389;BME280;3227;42.654;23.360;2022-10-03T14:49:19;94444.50;;;16.12;53.34
6389;BME280;3227;42.654;23.360;2022-10-03T14:51:51;94459.34;;;16.04;54.46
6389;BME280;3227;42.654;23.360;2022-10-03T14:54:23;94454.38;;;15.93;54.81
6389;BME280;3227;42.654;23.360;2022-10-03T14:56:52;94448.59;;;15.82;56.12
6389;BME280;3227;42.654;23.360;2022-10-03T14:59:25;94460.88;;;15.72;56.84
6389;BME280;3227;42.654;23.360;2022-10-03T15:01:56;94454.25;;;15.59;58.29
6389;BME280;3227;42.654;23.360;2022-10-03T15:04:27;94439.22;;;15.35;60.38
6389;BME280;3227;42.654;23.360;2022-10-03T15:06:58;94462.63;;;15.26;62.30
6389;BME280;3227;42.654;23.360;2022-10-03T15:09:33;94461.91;;;15.17;62.65
6389;BME280;3227;42.654;23.360;2022-10-03T15:12:09;94444.91;;;15.07;63.41
6389;BME280;3227;42.654;23.360;2022-10-03T15:14:41;94458.72;;;15.06;64.24
6389;BME280;3227;42.654;23.360;2022-10-03T15:17:20;94461.25;;;15.08;64.17
6389;BME280;3227;42.654;23.360;2022-10-03T15:19:50;94469.03;;;15.06;64.53
6389;BME280;3227;42.654;23.360;2022-10-03T15:22:31;94474.94;;;15.13;64.22
6389;BME280;3227;42.654;23.360;2022-10-03T15:25:03;94477.50;;;15.14;64.00
6389;BME280;3227;42.654;23.360;2022-10-03T15:27:52;94485.16;;;15.16;64.62
6389;BME280;3227;42.654;23.360;2022-10-03T15:30:22;94487.72;;;15.17;63.83
6389;BME280;3227;42.654;23.360;2022-10-03T15:32:51;94483.41;;;15.18;62.61
6389;BME280;3227;42.654;23.360;2022-10-03T15:35:23;94502.38;;;15.17;62.79
6389;BME280;3227;42.654;23.360;2022-10-03T15:37:52;94494.56;;;15.20;63.76
6389;BME280;3227;42.654;23.360;2022-10-03T15:40:24;94483.41;;;15.18;63.08
6389;BME280;3227;42.654;23.360;2022-10-03T15:43:02;94482.81;;;15.05;63.19
6389;BME280;3227;42.654;23.360;2022-10-03T15:45:34;94476.94;;;14.97;63.99
6389;BME280;3227;42.654;23.360;2022-10-03T15:48:04;94487.34;;;14.91;64.39
6389;BME280;3227;42.654;23.360;2022-10-03T15:50:34;94477.28;;;14.77;65.16
6389;BME280;3227;42.654;23.360;2022-10-03T15:53:07;94447.75;;;14.44;65.40
6389;BME280;3227;42.654;23.360;2022-10-03T15:55:39;94495.50;;;14.67;65.19
6389;BME280;3227;42.654;23.360;2022-10-03T15:58:13;94459.97;;;14.30;65.61
6389;BME280;3227;42.654;23.360;2022-10-03T16:00:58;94498.28;;;14.55;66.06
6389;BME280;3227;42.654;23.360;2022-10-03T16:03:30;94494.91;;;14.51;66.14
6389;BME280;3227;42.654;23.360;2022-10-03T16:06:07;94498.50;;;14.41;66.33
6389;BME280;3227;42.654;23.360;2022-10-03T16:08:49;94480.72;;;14.23;66.28
6389;BME280;3227;42.654;23.360;2022-10-03T16:11:21;94508.06;;;14.31;65.81
6389;BME280;3227;42.654;23.360;2022-10-03T16:13:58;94512.38;;;14.29;65.42
6389;BME280;3227;42.654;23.360;2022-10-03T16:16:35;94529.59;;;14.26;65.80
6389;BME280;3227;42.654;23.360;2022-10-03T16:19:23;94532.22;;;14.24;64.78
6389;BME280;3227;42.654;23.360;2022-10-03T16:21:57;94529.69;;;14.23;64.77
6389;BME280;3227;42.654;23.360;2022-10-03T16:24:34;94538.22;;;14.25;64.25
6389;BME280;3227;42.654;23.360;2022-10-03T16:27:09;94540.84;;;14.22;64.41
6389;BME280;3227;42.654;23.360;2022-10-03T16:29:44;94547.69;;;14.24;64.66
6389;BME280;3227;42.654;23.360;2022-10-03T16:32:19;94545.94;;;14.25;64.97
6389;BME280;3227;42.654;23.360;2022-10-03T16:34:48;94555.34;;;14.30;64.84
6389;BME280;3227;42.654;23.360;2022-10-03T16:37:18;94556.19;;;14.32;64.39
6389;BME280;3227;42.654;23.360;2022-10-03T16:39:53;94558.69;;;14.35;64.85
6389;BME280;3227;42.654;23.360;2022-10-03T16:42:22;94552.66;;;14.39;64.99
6389;BME280;3227;42.654;23.360;2022-10-03T16:44:54;94550.09;;;14.39;64.45
6389;BME280;3227;42.654;23.360;2022-10-03T16:47:33;94550.94;;;14.37;64.28
6389;BME280;3227;42.654;23.360;2022-10-03T16:50:02;94553.53;;;14.37;65.47
6389;BME280;3227;42.654;23.360;2022-10-03T16:52:49;94563.84;;;14.40;65.22
6389;BME280;3227;42.654;23.360;2022-10-03T16:55:21;94568.06;;;14.44;64.61